createdAt,value
2022-08-08T00:00:52.464Z,74.70
2022-08-08T00:03:32.943Z,74.96
2022-08-08T00:06:16.605Z,75.27
2022-08-08T00:09:36.014Z,76.14
2022-08-08T00:12:10.502Z,75.74
2022-08-08T00:14:59.331Z,76.54
2022-08-08T00:18:03.604Z,74.93
2022-08-08T00:20:56.210Z,77.29
2022-08-08T00:23:42.925Z,75.34
2022-08-08T00:26:26.325Z,76.33
2022-08-08T00:29:12.617Z,76.37
2022-08-08T00:32:14.953Z,77.37
2022-08-08T00:35:18.474Z,76.76
2022-08-08T00:38:04.331Z,78.60
2022-08-08T00:41:12.219Z,78.18
2022-08-08T00:43:41.511Z,78.42
2022-08-08T00:46:32.165Z,78.40
2022-08-08T00:49:39.331Z,77.53
2022-08-08T00:52:48.924Z,80.16
2022-08-08T00:55:54.040Z,79.86
2022-08-08T00:59:03.133Z,81.81
2022-08-08T01:01:55.550Z,83.19
2022-08-08T01:05:04.103Z,83.21
2022-08-08T01:07:55.557Z,81.22
2022-08-08T01:10:42.760Z,83.48
2022-08-08T01:13:44.031Z,82.14
2022-08-08T01:16:47.568Z,83.58
2022-08-08T01:20:01.709Z,84.07
2022-08-08T01:22:43.212Z,81.89
2022-08-08T01:25:40.975Z,83.92
2022-08-08T01:28:27.909Z,84.45
2022-08-08T01:32:15.258Z,85.88
2022-08-08T01:35:16.598Z,86.23
2022-08-08T01:38:14.058Z,87.47
2022-08-08T01:40:56.493Z,86.43
2022-08-08T01:43:51.084Z,89.38
2022-08-08T01:46:42.520Z,90.63
2022-08-08T01:49:22.850Z,88.21
2022-08-08T01:53:06.527Z,89.22
2022-08-08T01:56:26.279Z,89.88
2022-08-08T01:58:38.219Z,89.77
2022-08-08T02:01:05.401Z,89.17
2022-08-08T02:03:58.159Z,90.46
2022-08-08T02:06:57.018Z,91.28
2022-08-08T02:10:04.054Z,90.78
2022-08-08T02:13:05.284Z,93.19
2022-08-08T02:15:38.504Z,91.27
2022-08-08T02:18:27.224Z,93.53
2022-08-08T02:21:41.815Z,92.00
2022-08-08T02:24:29.734Z,94.05
2022-08-08T02:27:10.077Z,92.96
2022-08-08T02:29:58.879Z,94.17
2022-08-08T02:32:40.117Z,94.32
2022-08-08T02:35:28.238Z,95.02
2022-08-08T02:37:58.155Z,94.30
2022-08-08T02:41:03.436Z,95.15
2022-08-08T02:44:38.767Z,95.96
2022-08-08T02:47:16.777Z,96.09
2022-08-08T02:50:21.088Z,96.61
2022-08-08T02:53:04.611Z,97.17
2022-08-08T02:55:59.932Z,97.34
2022-08-08T02:58:51.443Z,97.83
2022-08-08T03:01:47.579Z,98.27
2022-08-08T03:05:09.427Z,98.85
2022-08-08T03:07:58.082Z,97.06
2022-08-08T03:10:44.264Z,98.65
2022-08-08T03:13:34.057Z,98.34
2022-08-08T03:16:34.509Z,100.00
2022-08-08T03:19:19.937Z,100.00
2022-08-08T03:21:58.717Z,100.00
2022-08-08T03:24:27.157Z,100.00
2022-08-08T03:27:27.128Z,100.00
2022-08-08T03:30:01.907Z,100.00
2022-08-08T03:32:52.426Z,100.00
2022-08-08T03:35:25.944Z,100.00
2022-08-08T03:38:56.152Z,100.00
2022-08-08T03:40:54.397Z,100.00
2022-08-08T03:43:21.175Z,100.00
2022-08-08T03:46:07.442Z,100.00
2022-08-08T03:49:09.739Z,100.00
2022-08-08T03:51:40.113Z,100.00
2022-08-08T03:54:08.562Z,100.00
2022-08-08T03:56:35.274Z,100.00
2022-08-08T03:59:02.311Z,100.00
2022-08-08T04:02:12.344Z,100.00
2022-08-08T04:04:30.937Z,100.00
2022-08-08T04:07:03.451Z,100.00
2022-08-08T04:09:58.864Z,100.00
2022-08-08T04:12:16.353Z,100.00
2022-08-08T04:14:45.160Z,100.00
2022-08-08T04:17:22.521Z,100.00
2022-08-08T04:19:58.701Z,100.00
2022-08-08T04:22:29.712Z,100.00
2022-08-08T04:24:56.966Z,100.00
2022-08-08T04:28:02.376Z,100.00
2022-08-08T04:30:17.194Z,100.00
2022-08-08T04:32:47.868Z,100.00
2022-08-08T04:35:17.266Z,100.00
2022-08-08T04:37:43.739Z,100.00
2022-08-08T04:40:12.744Z,100.00
2022-08-08T04:42:55.932Z,100.00
2022-08-08T04:45:29.869Z,100.00
2022-08-08T04:48:00.161Z,100.00
2022-08-08T04:50:34.159Z,100.00
2022-08-08T04:53:14.340Z,100.00
2022-08-08T04:55:55.943Z,100.00
2022-08-08T04:58:23.562Z,100.00
2022-08-08T05:00:50.254Z,100.00
2022-08-08T05:04:07.609Z,100.00
2022-08-08T05:06:13.019Z,100.00
2022-08-08T05:08:41.802Z,100.00
2022-08-08T05:11:08.511Z,100.00
2022-08-08T05:13:36.801Z,100.00
2022-08-08T05:16:53.189Z,100.00
2022-08-08T05:20:12.763Z,100.00
2022-08-08T05:22:00.506Z,100.00
2022-08-08T05:24:27.357Z,100.00
2022-08-08T05:26:53.818Z,100.00
2022-08-08T05:29:24.049Z,100.00
2022-08-08T05:32:04.888Z,100.00
2022-08-08T05:34:42.359Z,100.00
2022-08-08T05:37:17.348Z,100.00
2022-08-08T05:39:55.072Z,100.00
2022-08-08T05:42:38.699Z,100.00
2022-08-08T05:45:24.822Z,100.00
2022-08-08T05:48:00.717Z,100.00
2022-08-08T05:50:30.286Z,100.00
2022-08-08T05:53:54.150Z,100.00
2022-08-08T05:56:09.746Z,100.00
2022-08-08T05:58:35.006Z,100.00
2022-08-08T06:01:04.919Z,100.00
2022-08-08T06:03:32.140Z,100.00
2022-08-08T06:06:06.438Z,100.00
2022-08-08T06:08:53.373Z,100.00
2022-08-08T06:11:22.454Z,100.00
2022-08-08T06:13:55.100Z,100.00
2022-08-08T06:16:27.441Z,100.00
2022-08-08T06:19:00.357Z,100.00
2022-08-08T06:21:48.563Z,100.00
2022-08-08T06:24:22.956Z,99.90
2022-08-08T06:27:04.143Z,99.91
2022-08-08T06:29:59.208Z,100.00
2022-08-08T06:32:31.704Z,99.95
2022-08-08T06:36:06.536Z,99.53
2022-08-08T06:37:56.074Z,99.16
2022-08-08T06:40:28.938Z,98.68
2022-08-08T06:43:09.459Z,97.96
2022-08-08T06:45:42.685Z,96.13
2022-08-08T06:48:10.165Z,94.83
2022-08-08T06:50:38.534Z,94.44
2022-08-08T06:53:09.911Z,93.95
2022-08-08T06:55:42.061Z,93.36
2022-08-08T06:58:09.744Z,92.50
2022-08-08T07:00:40.945Z,91.95
2022-08-08T07:03:52.779Z,91.31
2022-08-08T07:06:02.358Z,90.74
2022-08-08T07:08:37.218Z,89.97
2022-08-08T07:11:05.445Z,89.73
2022-08-08T07:14:00.097Z,88.76
2022-08-08T07:17:00.871Z,87.84
2022-08-08T07:19:42.049Z,85.45
2022-08-08T07:22:12.048Z,84.98
2022-08-08T07:24:52.884Z,83.88
2022-08-08T07:27:34.993Z,83.38
2022-08-08T07:30:13.952Z,82.29
2022-08-08T07:32:47.535Z,80.75
2022-08-08T07:35:17.919Z,80.68
2022-08-08T07:37:55.735Z,80.17
2022-08-08T07:40:33.113Z,79.54
2022-08-08T07:43:09.107Z,78.59
2022-08-08T07:45:51.526Z,77.80
2022-08-08T07:48:23.657Z,76.50
2022-08-08T07:50:52.438Z,74.88
2022-08-08T07:54:00.679Z,73.79
2022-08-08T07:56:37.137Z,73.92
2022-08-08T07:59:10.460Z,72.34
2022-08-08T08:02:35.904Z,71.65
2022-08-08T08:04:32.546Z,70.89
2022-08-08T08:07:02.527Z,70.64
2022-08-08T08:09:39.227Z,69.85
2022-08-08T08:12:07.164Z,69.95
2022-08-08T08:14:41.712Z,69.35
2022-08-08T08:17:09.714Z,69.16
2022-08-08T08:19:45.579Z,67.92
2022-08-08T08:22:12.697Z,68.32
2022-08-08T08:24:46.750Z,66.49
2022-08-08T08:27:13.464Z,65.55
2022-08-08T08:29:40.096Z,64.45
2022-08-08T08:32:12.221Z,63.19
2022-08-08T08:34:53.381Z,63.43
2022-08-08T08:37:25.869Z,61.71
2022-08-08T08:40:01.748Z,62.67
2022-08-08T08:42:35.522Z,62.16
2022-08-08T08:45:21.010Z,61.22
2022-08-08T08:47:53.250Z,61.29
2022-08-08T08:50:33.821Z,59.47
2022-08-08T08:53:55.067Z,58.85
2022-08-08T08:56:04.886Z,59.76
2022-08-08T08:58:32.990Z,58.29
2022-08-08T09:01:08.811Z,56.82
2022-08-08T09:03:47.354Z,55.67
2022-08-08T09:06:28.803Z,55.94
2022-08-08T09:09:25.935Z,56.36
2022-08-08T09:12:06.777Z,55.73
2022-08-08T09:14:35.370Z,56.55
2022-08-08T09:17:11.463Z,56.79
2022-08-08T09:21:58.407Z,56.77
2022-08-08T09:22:28.133Z,54.90
2022-08-08T09:24:56.260Z,53.53
2022-08-08T09:27:55.616Z,53.32
2022-08-08T09:30:17.440Z,52.60
2022-08-08T09:32:50.375Z,50.74
2022-08-08T09:35:38.547Z,51.18
2022-08-08T09:38:52.902Z,50.00
2022-08-08T09:41:55.087Z,49.95
2022-08-08T09:44:48.179Z,49.13
2022-08-08T09:48:02.165Z,49.05
2022-08-08T09:50:11.545Z,48.93
2022-08-08T09:53:10.321Z,48.46
2022-08-08T09:56:05.011Z,47.70
2022-08-08T09:58:27.879Z,47.64
2022-08-08T10:01:15.382Z,46.61
2022-08-08T10:04:02.137Z,45.57
2022-08-08T10:06:32.634Z,44.88
2022-08-08T10:08:59.979Z,44.77
2022-08-08T10:12:26.038Z,44.93
2022-08-08T10:14:28.428Z,43.64
2022-08-08T10:17:03.740Z,43.69
2022-08-08T10:19:58.618Z,42.60
2022-08-08T10:22:28.705Z,44.31
2022-08-08T10:25:02.377Z,43.58
2022-08-08T10:27:34.457Z,43.26
2022-08-08T10:30:05.187Z,43.37
2022-08-08T10:32:35.459Z,43.35
2022-08-08T10:36:06.899Z,42.00
2022-08-08T10:38:05.392Z,42.63
2022-08-08T10:40:33.127Z,41.54
2022-08-08T10:43:06.069Z,41.45
2022-08-08T10:45:56.079Z,40.40
2022-08-08T10:48:32.245Z,40.44
2022-08-08T10:51:00.099Z,40.04
2022-08-08T10:53:39.387Z,40.28
2022-08-08T10:56:27.708Z,40.12
2022-08-08T10:59:10.343Z,39.77
2022-08-08T11:01:46.922Z,38.67
2022-08-08T11:04:29.503Z,38.42
2022-08-08T11:07:01.809Z,39.16
2022-08-08T11:09:32.335Z,39.24
2022-08-08T11:12:06.409Z,38.92
2022-08-08T11:15:22.857Z,38.14
2022-08-08T11:17:59.445Z,37.71
2022-08-08T11:20:29.348Z,36.54
2022-08-08T11:22:59.069Z,37.10
2022-08-08T11:25:52.124Z,36.99
2022-08-08T11:28:22.954Z,36.42
2022-08-08T11:30:53.547Z,36.47
2022-08-08T11:33:51.403Z,36.11
2022-08-08T11:36:13.365Z,36.21
2022-08-08T11:38:55.599Z,36.01
2022-08-08T11:41:28.274Z,35.75
2022-08-08T11:44:00.384Z,35.64
2022-08-08T11:46:30.493Z,35.52
2022-08-08T11:49:00.135Z,35.52
2022-08-08T11:51:38.438Z,35.13
2022-08-08T11:54:27.138Z,35.14
2022-08-08T11:56:56.614Z,34.71
2022-08-08T11:59:58.592Z,35.11
2022-08-08T12:02:32.368Z,35.30
2022-08-08T12:05:02.076Z,34.92
2022-08-08T12:07:28.947Z,34.80
2022-08-08T12:09:59.586Z,35.12
2022-08-08T12:12:31.238Z,34.54
2022-08-08T12:15:02.373Z,34.23
2022-08-08T12:17:33.288Z,34.03
2022-08-08T12:20:05.854Z,33.54
2022-08-08T12:22:44.958Z,33.29
2022-08-08T12:25:20.497Z,32.52
2022-08-08T12:27:52.748Z,31.00
2022-08-08T12:30:32.402Z,32.23
2022-08-08T12:33:00.197Z,32.65
2022-08-08T12:35:33.524Z,32.75
2022-08-08T12:38:07.814Z,32.16
2022-08-08T12:40:55.949Z,31.26
2022-08-08T12:43:43.403Z,30.34
2022-08-08T12:46:19.371Z,29.48
2022-08-08T12:49:22.288Z,29.79
2022-08-08T12:51:58.383Z,29.74
2022-08-08T12:54:36.794Z,28.99
2022-08-08T12:57:38.292Z,27.30
2022-08-08T13:00:33.922Z,26.77
2022-08-08T13:03:05.760Z,27.62
2022-08-08T13:06:03.988Z,28.22
2022-08-08T13:08:21.899Z,27.59
2022-08-08T13:10:58.212Z,26.69
2022-08-08T13:13:28.474Z,27.37
2022-08-08T13:16:20.032Z,26.23
2022-08-08T13:18:57.516Z,28.10
2022-08-08T13:21:48.610Z,27.62
2022-08-08T13:24:18.803Z,26.89
2022-08-08T13:27:10.708Z,27.48
2022-08-08T13:29:52.929Z,27.23
2022-08-08T13:32:23.587Z,27.34
2022-08-08T13:34:54.939Z,26.95
2022-08-08T13:37:28.223Z,25.87
2022-08-08T13:40:10.614Z,27.57
2022-08-08T13:42:37.615Z,27.84
2022-08-08T13:45:09.909Z,26.90
2022-08-08T13:47:37.357Z,26.43
2022-08-08T13:50:39.876Z,26.45
2022-08-08T13:52:59.009Z,26.17
2022-08-08T13:55:36.373Z,26.20
2022-08-08T13:58:08.091Z,26.01
2022-08-08T14:00:45.094Z,25.66
2022-08-08T14:03:47.095Z,25.48
2022-08-08T14:06:09.096Z,25.89
2022-08-08T14:08:57.315Z,26.42
2022-08-08T14:11:28.316Z,26.12
2022-08-08T14:14:00.284Z,26.50
2022-08-08T14:16:27.783Z,26.24
2022-08-08T14:18:59.355Z,26.45
2022-08-08T14:21:40.086Z,25.99
2022-08-08T14:24:30.120Z,25.69
2022-08-08T14:26:56.705Z,25.94
2022-08-08T14:29:29.925Z,26.27
2022-08-08T14:32:12.721Z,26.16
2022-08-08T14:34:50.516Z,25.22
2022-08-08T14:37:18.368Z,26.10
2022-08-08T14:40:05.989Z,25.83
2022-08-08T14:42:54.509Z,25.98
2022-08-08T14:45:29.068Z,26.03
2022-08-08T14:48:11.318Z,26.19
2022-08-08T14:50:41.055Z,26.01
2022-08-08T14:53:13.521Z,25.74
2022-08-08T14:55:41.923Z,25.94
2022-08-08T14:58:12.013Z,25.85
2022-08-08T15:00:43.377Z,26.07
2022-08-08T15:03:15.676Z,25.86
2022-08-08T15:05:53.588Z,25.54
2022-08-08T15:08:35.280Z,25.71
2022-08-08T15:11:09.432Z,26.01
2022-08-08T15:14:01.025Z,26.49
2022-08-08T15:16:27.915Z,26.68
2022-08-08T15:18:54.895Z,26.96
2022-08-08T15:21:27.642Z,26.95
2022-08-08T15:23:56.748Z,27.16
2022-08-08T15:26:25.789Z,27.70
2022-08-08T15:28:55.127Z,27.59
2022-08-08T15:32:02.792Z,27.60
2022-08-08T15:34:28.771Z,27.81
2022-08-08T15:37:02.091Z,28.43
2022-08-08T15:39:39.072Z,28.61
2022-08-08T15:42:10.471Z,28.56
2022-08-08T16:08:23.143Z,32.97
2022-08-08T16:13:03.267Z,33.09
2022-08-08T16:13:46.407Z,32.76
2022-08-08T16:16:18.486Z,32.58
2022-08-08T16:18:56.828Z,33.02
2022-08-08T16:21:27.095Z,32.89
2022-08-08T16:23:55.336Z,32.52
2022-08-08T16:26:34.315Z,32.68
2022-08-08T16:29:09.084Z,32.60
2022-08-08T16:31:40.182Z,32.36
2022-08-08T16:34:06.770Z,32.32
2022-08-08T16:36:35.866Z,32.35
2022-08-08T16:39:09.724Z,32.38
2022-08-08T16:41:44.275Z,32.79
2022-08-08T16:44:17.913Z,32.40
2022-08-08T16:46:56.234Z,32.82
2022-08-08T16:49:23.133Z,32.87
2022-08-08T16:55:00.262Z,33.10
2022-08-08T16:55:04.482Z,33.19
2022-08-08T16:58:14.563Z,33.22
2022-08-08T17:00:26.954Z,33.41
2022-08-08T17:02:54.013Z,33.46
2022-08-08T17:05:20.517Z,33.66
2022-08-08T17:07:51.255Z,33.92
2022-08-08T17:10:19.180Z,34.44
2022-08-08T17:12:54.934Z,34.57
2022-08-08T17:15:22.986Z,34.70
2022-08-08T17:18:03.033Z,34.78
2022-08-08T17:20:31.880Z,35.49
2022-08-08T17:23:17.674Z,35.35
2022-08-08T17:25:52.412Z,35.75
2022-08-08T17:28:31.540Z,35.26
2022-08-08T17:31:39.165Z,35.38
2022-08-08T17:34:47.857Z,35.73
2022-08-08T17:36:36.471Z,35.95
2022-08-08T17:39:05.416Z,36.48
2022-08-08T17:41:58.107Z,36.50
2022-08-08T17:44:26.986Z,36.40
2022-08-08T17:46:56.882Z,36.82
2022-08-08T17:49:28.556Z,37.05
2022-08-08T17:52:05.601Z,37.32
2022-08-08T17:54:33.755Z,37.39
2022-08-08T17:57:03.806Z,37.64
2022-08-08T17:59:36.447Z,38.09
2022-08-08T18:02:18.566Z,37.96
2022-08-08T18:04:51.127Z,38.01
2022-08-08T18:08:01.098Z,38.19
2022-08-08T18:10:05.341Z,38.49
2022-08-08T18:12:31.833Z,38.57
2022-08-08T18:14:58.697Z,38.90
2022-08-08T18:17:28.460Z,38.86
2022-08-08T18:20:42.917Z,39.13
2022-08-08T18:22:51.064Z,39.05
2022-08-08T18:25:18.036Z,39.59
2022-08-08T18:27:45.716Z,39.46
2022-08-08T18:30:13.176Z,39.70
2022-08-08T18:32:42.190Z,40.26
2022-08-08T18:35:15.944Z,39.95
2022-08-08T18:37:48.409Z,39.91
2022-08-08T18:40:17.988Z,40.15
2022-08-08T18:42:45.607Z,40.25
2022-08-08T18:46:08.520Z,40.62
2022-08-08T18:48:07.801Z,40.83
2022-08-08T18:50:39.802Z,41.31
2022-08-08T18:53:17.177Z,41.29
2022-08-08T18:55:44.951Z,41.29
2022-08-08T18:58:13.639Z,41.52
2022-08-08T19:00:40.522Z,42.03
2022-08-08T19:03:13.545Z,41.88
2022-08-08T19:05:45.105Z,42.47
2022-08-08T19:08:25.114Z,42.72
2022-08-08T19:10:58.890Z,42.96
2022-08-08T19:13:53.098Z,42.86
2022-08-08T19:16:15.031Z,43.45
2022-08-08T19:18:51.825Z,43.43
2022-08-08T19:21:30.763Z,43.93
2022-08-08T19:24:05.752Z,43.85
2022-08-08T19:26:37.375Z,45.17
2022-08-08T19:29:05.312Z,44.84
2022-08-08T19:31:35.781Z,45.82
2022-08-08T19:34:29.902Z,46.16
2022-08-08T19:36:58.632Z,46.39
2022-08-08T19:39:34.964Z,46.05
2022-08-08T19:42:04.369Z,46.72
2022-08-08T19:44:45.324Z,46.74
2022-08-08T19:47:24.430Z,46.82
2022-08-08T19:49:59.663Z,47.52
2022-08-08T19:52:35.340Z,48.19
2022-08-08T19:55:11.346Z,49.46
2022-08-08T19:57:40.567Z,48.79
2022-08-08T20:00:11.546Z,50.12
2022-08-08T20:02:55.950Z,50.25
2022-08-08T20:06:14.629Z,50.35
2022-08-08T20:08:30.274Z,50.65
2022-08-08T20:10:56.339Z,51.22
2022-08-08T20:14:31.727Z,51.20
2022-08-08T20:16:13.535Z,51.86
2022-08-08T20:18:52.526Z,51.04
2022-08-08T20:21:23.265Z,51.46
2022-08-08T20:23:57.883Z,51.49
2022-08-08T20:26:27.585Z,51.63
2022-08-08T20:28:56.406Z,51.65
2022-08-08T20:31:22.921Z,52.56
2022-08-08T20:34:27.434Z,52.35
2022-08-08T20:36:38.547Z,53.11
2022-08-08T20:39:06.080Z,53.35
2022-08-08T20:41:33.818Z,53.82
2022-08-08T20:44:01.033Z,53.74
2022-08-08T20:46:27.719Z,54.46
2022-08-08T20:48:58.349Z,54.60
2022-08-08T20:51:32.322Z,54.51
2022-08-08T20:54:03.592Z,55.49
2022-08-08T20:57:04.622Z,55.59
2022-08-08T20:59:24.730Z,56.18
2022-08-08T21:02:06.251Z,55.66
2022-08-08T21:07:04.974Z,56.88
2022-08-08T21:09:48.570Z,56.89
2022-08-08T21:12:32.164Z,57.86
2022-08-08T21:15:06.541Z,58.83
2022-08-08T21:17:34.476Z,58.47
2022-08-08T21:20:02.561Z,58.50
2022-08-08T21:22:30.466Z,59.67
2022-08-08T21:24:57.060Z,60.31
2022-08-08T21:28:05.886Z,60.30
2022-08-08T21:30:17.847Z,59.96
2022-08-08T21:32:51.121Z,60.92
2022-08-08T21:36:18.097Z,61.26
2022-08-08T21:38:16.300Z,61.76
2022-08-08T21:40:56.356Z,63.10
2022-08-08T21:43:34.183Z,63.25
2022-08-08T21:48:00.347Z,63.71
2022-08-08T21:48:55.482Z,63.40
2022-08-08T21:54:18.014Z,63.46
2022-08-08T21:54:35.768Z,66.05
2022-08-08T21:57:09.585Z,64.10
2022-08-08T22:00:02.958Z,65.07
2022-08-08T22:02:24.148Z,65.48
2022-08-08T22:04:55.994Z,65.56
2022-08-08T22:07:26.079Z,67.28
2022-08-08T22:10:01.463Z,65.75
2022-08-08T22:12:27.955Z,66.45
2022-08-08T22:14:54.453Z,66.83
2022-08-08T22:17:20.956Z,68.55
2022-08-08T22:20:11.429Z,68.38
2022-08-08T22:22:38.203Z,68.29
2022-08-08T22:25:19.890Z,67.89
2022-08-08T22:28:03.762Z,68.83
2022-08-08T22:30:33.594Z,68.91
2022-08-08T22:33:01.088Z,69.11
2022-08-08T22:36:05.577Z,69.13
2022-08-08T22:38:17.454Z,69.50
2022-08-08T22:40:45.114Z,69.54
2022-08-08T22:43:15.573Z,70.57
2022-08-08T22:45:43.510Z,70.76
2022-08-08T22:48:13.892Z,71.12
2022-08-08T22:50:40.579Z,70.90
2022-08-08T22:54:29.496Z,71.92
2022-08-08T22:55:58.660Z,73.08
2022-08-08T22:58:30.993Z,71.94
2022-08-08T23:01:00.071Z,73.30
2022-08-08T23:03:52.803Z,73.73
2022-08-08T23:06:16.138Z,73.86
2022-08-08T23:08:44.426Z,74.51
2022-08-08T23:11:21.657Z,74.66
2022-08-08T23:13:51.625Z,74.37
2022-08-08T23:16:38.946Z,74.83
2022-08-08T23:19:08.816Z,76.14
2022-08-08T23:21:38.793Z,76.98
2022-08-08T23:24:05.930Z,77.01
2022-08-08T23:26:34.020Z,76.47
2022-08-08T23:29:01.185Z,77.38
2022-08-08T23:31:27.740Z,77.75
2022-08-08T23:34:16.930Z,77.78
2022-08-08T23:36:40.852Z,77.79
2022-08-08T23:39:07.785Z,77.77
2022-08-08T23:41:45.915Z,78.10
2022-08-08T23:44:16.116Z,77.48
2022-08-08T23:49:02.733Z,77.55
2022-08-08T23:49:32.194Z,79.13
2022-08-08T23:52:07.135Z,78.35
2022-08-08T23:54:43.454Z,79.82
2022-08-08T23:57:38.760Z,79.71
